Time,TemperatureF,DewpointF,PressureIn,WindDirection,WindDirectionDegrees,WindSpeedMPH,WindSpeedGustMPH,Humidity,HourlyPrecipIn,Conditions,Clouds,dailyrainin,SolarRadiationWatts/m^2,SoftwareType,DateUTC
2013-02-06 00:21:00,43.0,43.0,-100.00,North,352,0.0,4.0,100,0.00,,,0.00,0.000000,,2013-02-06 08:21:00,
2013-02-06 00:31:00,43.0,43.0,-100.00,North,352,0.0,4.0,100,0.00,,,0.00,0.000000,,2013-02-06 08:31:00,
2013-02-06 00:41:00,43.0,43.0,-100.00,North,352,0.0,4.0,100,0.00,,,0.00,0.000000,,2013-02-06 08:41:00,
2013-02-06 00:53:00,43.0,43.0,-100.00,North,352,0.0,4.0,100,0.00,,,0.00,0.000000,,2013-02-06 08:53:00,
2013-02-06 01:21:00,42.0,42.0,-100.00,West,278,0.0,5.0,100,0.00,,,0.00,0.000000,,2013-02-06 09:21:00,
2013-02-06 01:31:00,42.0,42.0,-100.00,West,278,0.0,5.0,100,0.00,,,0.00,0.000000,,2013-02-06 09:31:00,
2013-02-06 01:41:00,42.0,42.0,-100.00,West,278,0.0,5.0,100,0.00,,,0.00,0.000000,,2013-02-06 09:41:00,
2013-02-06 01:51:00,42.0,42.0,-100.00,West,278,0.0,5.0,100,0.00,,,0.00,0.000000,,2013-02-06 09:51:00,
2013-02-06 02:21:00,41.0,41.0,-100.00,NW,312,0.0,5.0,100,0.00,,,0.00,0.000000,,2013-02-06 10:21:00,
2013-02-06 02:31:00,41.0,41.0,-100.00,NW,312,0.0,5.0,100,0.00,,,0.00,0.000000,,2013-02-06 10:31:00,
2013-02-06 02:41:00,41.0,41.0,-100.00,NW,312,0.0,5.0,100,0.00,,,0.00,0.000000,,2013-02-06 10:41:00,
2013-02-06 02:51:00,41.0,41.0,-100.00,NW,312,0.0,5.0,100,0.00,,,0.00,0.000000,,2013-02-06 10:51:00,
2013-02-06 03:32:00,41.0,41.0,-100.00,NW,311,0.0,4.0,100,0.00,,,0.00,0.000000,,2013-02-06 11:32:00,
2013-02-06 03:42:00,41.0,41.0,-100.00,NW,311,0.0,4.0,100,0.00,,,0.00,0.000000,,2013-02-06 11:42:00,
2013-02-06 03:52:00,41.0,41.0,-100.00,NW,311,0.0,4.0,100,0.00,,,0.00,0.000000,,2013-02-06 11:52:00,
2013-02-06 04:22:00,41.0,41.0,-100.00,WNW,302,0.0,0.0,100,0.00,,,-99.99,0.000000,,2013-02-06 12:22:00,
2013-02-06 04:32:00,41.0,41.0,-100.00,WNW,302,0.0,0.0,100,0.00,,,-99.99,0.000000,,2013-02-06 12:32:00,
2013-02-06 04:42:00,41.0,41.0,-100.00,WNW,302,0.0,0.0,100,0.00,,,-99.99,0.000000,,2013-02-06 12:42:00,
2013-02-06 04:52:00,41.0,41.0,-100.00,WNW,302,0.0,0.0,100,0.00,,,-99.99,0.000000,,2013-02-06 12:52:00,
2013-02-06 05:22:00,39.0,39.0,-100.00,North,355,0.0,0.0,100,0.00,,,0.00,0.000000,,2013-02-06 13:22:00,
2013-02-06 05:31:00,39.0,39.0,-100.00,North,355,0.0,0.0,100,0.00,,,0.00,0.000000,,2013-02-06 13:31:00,
2013-02-06 05:42:00,39.0,39.0,-100.00,North,355,0.0,0.0,100,0.00,,,0.00,0.000000,,2013-02-06 13:42:00,
2013-02-06 05:52:00,39.0,39.0,-100.00,North,355,0.0,0.0,100,0.00,,,0.00,0.000000,,2013-02-06 13:52:00,
2013-02-06 06:21:00,39.0,39.0,-100.00,West,281,0.0,0.0,100,0.00,,,0.00,0.000000,,2013-02-06 14:21:00,
2013-02-06 06:31:00,39.0,39.0,-100.00,West,281,0.0,0.0,100,0.00,,,0.00,0.000000,,2013-02-06 14:31:00,
2013-02-06 06:41:00,39.0,39.0,-100.00,West,281,0.0,0.0,100,0.00,,,0.00,0.000000,,2013-02-06 14:41:00,
2013-02-06 06:52:00,39.0,39.0,-100.00,West,281,0.0,0.0,100,0.00,,,0.00,0.000000,,2013-02-06 14:52:00,
2013-02-06 07:11:00,39.0,39.0,-100.00,ESE,103,0.0,0.0,100,0.00,,,0.00,0.000000,,2013-02-06 15:11:00,
2013-02-06 07:21:00,39.0,39.0,-100.00,ESE,103,0.0,0.0,100,0.00,,,0.00,0.000000,,2013-02-06 15:21:00,
2013-02-06 07:31:00,39.0,39.0,-100.00,ESE,103,0.0,0.0,100,0.00,,,0.00,0.000000,,2013-02-06 15:31:00,
2013-02-06 07:41:00,39.0,39.0,-100.00,ESE,103,0.0,0.0,100,0.00,,,0.00,0.000000,,2013-02-06 15:41:00,
2013-02-06 07:51:00,39.0,39.0,-100.00,ESE,103,0.0,0.0,100,0.00,,,0.00,0.000000,,2013-02-06 15:51:00,
2013-02-06 08:21:00,39.0,39.0,-100.00,SSW,206,0.0,4.0,100,0.00,,,0.00,13.000000,,2013-02-06 16:21:00,
2013-02-06 08:32:00,39.0,39.0,-100.00,SSW,206,0.0,4.0,100,0.00,,,0.00,13.000000,,2013-02-06 16:32:00,
2013-02-06 08:42:00,39.0,39.0,-100.00,SSW,206,0.0,4.0,100,0.00,,,0.00,13.000000,,2013-02-06 16:42:00,
2013-02-06 08:51:00,39.0,39.0,-100.00,SSW,206,0.0,4.0,100,0.00,,,0.00,13.000000,,2013-02-06 16:51:00,
2013-02-06 09:21:00,39.0,39.0,-100.00,NNW,336,0.0,0.0,100,0.00,,,0.00,66.000000,,2013-02-06 17:21:00,
2013-02-06 09:32:00,39.0,39.0,-100.00,NNW,336,0.0,0.0,100,0.00,,,0.00,66.000000,,2013-02-06 17:32:00,
2013-02-06 09:41:00,39.0,39.0,-100.00,NNW,336,0.0,0.0,100,0.00,,,0.00,66.000000,,2013-02-06 17:41:00,
2013-02-06 09:52:00,39.0,39.0,-100.00,NNW,336,0.0,0.0,100,0.00,,,0.00,66.000000,,2013-02-06 17:52:00,
2013-02-06 10:22:00,39.0,39.0,-100.00,NNE,19,0.0,4.0,100,0.00,,,0.00,75.000000,,2013-02-06 18:22:00,
2013-02-06 10:32:00,39.0,39.0,-100.00,NNE,19,0.0,4.0,100,0.00,,,0.00,75.000000,,2013-02-06 18:32:00,
2013-02-06 10:41:00,39.0,39.0,-100.00,NNE,19,0.0,4.0,100,0.00,,,0.00,75.000000,,2013-02-06 18:41:00,
2013-02-06 10:52:00,39.0,39.0,-100.00,NNE,19,0.0,4.0,100,0.00,,,0.00,75.000000,,2013-02-06 18:52:00,
2013-02-06 11:21:00,41.0,41.0,-100.00,North,357,0.0,4.0,100,0.00,,,0.00,131.000000,,2013-02-06 19:21:00,
2013-02-06 11:31:00,41.0,41.0,-100.00,North,357,0.0,4.0,100,0.00,,,0.00,131.000000,,2013-02-06 19:31:00,
2013-02-06 11:41:00,41.0,41.0,-100.00,North,357,0.0,4.0,100,0.00,,,0.00,131.000000,,2013-02-06 19:41:00,
2013-02-06 11:52:00,41.0,41.0,-100.00,North,357,0.0,4.0,100,0.00,,,0.00,131.000000,,2013-02-06 19:52:00,
2013-02-06 12:21:00,40.0,40.0,-100.00,North,10,0.0,5.0,100,0.00,,,0.00,146.000000,,2013-02-06 20:21:00,
2013-02-06 12:31:00,40.0,40.0,-100.00,North,10,0.0,5.0,100,0.00,,,0.00,146.000000,,2013-02-06 20:31:00,
2013-02-06 12:41:00,40.0,40.0,-100.00,North,10,0.0,5.0,100,0.00,,,0.00,146.000000,,2013-02-06 20:41:00,
2013-02-06 12:52:00,40.0,40.0,-100.00,North,10,0.0,5.0,100,0.00,,,0.00,146.000000,,2013-02-06 20:52:00,
2013-02-06 13:21:00,43.0,43.0,-100.00,NW,305,0.0,5.0,100,0.00,,,0.00,216.000000,,2013-02-06 21:21:00,
2013-02-06 13:32:00,43.0,43.0,-100.00,NW,305,0.0,5.0,100,0.00,,,0.00,216.000000,,2013-02-06 21:32:00,
2013-02-06 13:41:00,43.0,43.0,-100.00,NW,305,0.0,5.0,100,0.00,,,0.00,216.000000,,2013-02-06 21:41:00,
2013-02-06 13:51:00,43.0,43.0,-100.00,NW,305,0.0,5.0,100,0.00,,,0.00,216.000000,,2013-02-06 21:51:00,
2013-02-06 14:21:00,44.0,44.0,-100.00,West,272,4.0,5.0,100,0.00,,,0.00,350.000000,,2013-02-06 22:21:00,
2013-02-06 14:31:00,44.0,44.0,-100.00,West,272,4.0,5.0,100,0.00,,,0.00,350.000000,,2013-02-06 22:31:00,
2013-02-06 14:41:00,44.0,44.0,-100.00,West,272,4.0,5.0,100,0.00,,,0.00,350.000000,,2013-02-06 22:41:00,
2013-02-06 14:51:00,44.0,44.0,-100.00,West,272,4.0,5.0,100,0.00,,,0.00,350.000000,,2013-02-06 22:51:00,
2013-02-06 15:21:00,44.0,44.0,-100.00,WSW,242,0.0,6.0,100,0.00,,,0.00,212.000000,,2013-02-06 23:21:00,
2013-02-06 15:31:00,44.0,44.0,-100.00,WSW,242,0.0,6.0,100,0.00,,,0.00,212.000000,,2013-02-06 23:31:00,
2013-02-06 15:41:00,44.0,44.0,-100.00,WSW,242,0.0,6.0,100,0.00,,,0.00,212.000000,,2013-02-06 23:41:00,
2013-02-06 15:51:00,44.0,44.0,-100.00,WSW,242,0.0,6.0,100,0.00,,,0.00,212.000000,,2013-02-06 23:51:00,
2013-02-06 16:21:00,50.0,49.0,-100.00,West,281,0.0,5.0,98,0.00,,,0.00,325.000000,,2013-02-07 00:21:00,
2013-02-06 16:41:00,50.0,49.0,-100.00,West,281,0.0,5.0,98,0.00,,,0.00,325.000000,,2013-02-07 00:41:00,
2013-02-06 16:51:00,50.0,49.0,-100.00,West,281,0.0,5.0,98,0.00,,,0.00,325.000000,,2013-02-07 00:51:00,
2013-02-06 17:21:00,44.0,44.0,-100.00,WNW,303,1.0,4.0,99,0.00,,,0.00,186.000000,,2013-02-07 01:21:00,
2013-02-06 17:31:00,44.0,44.0,-100.00,WNW,303,1.0,4.0,99,0.00,,,0.00,186.000000,,2013-02-07 01:31:00,
2013-02-06 17:41:00,44.0,44.0,-100.00,WNW,303,1.0,4.0,99,0.00,,,0.00,186.000000,,2013-02-07 01:41:00,
2013-02-06 17:52:00,44.0,44.0,-100.00,WNW,303,1.0,4.0,99,0.00,,,0.00,186.000000,,2013-02-07 01:52:00,
2013-02-06 18:21:00,41.0,41.0,-100.00,NNW,338,0.0,5.0,100,0.00,,,0.00,3.000000,,2013-02-07 02:21:00,
2013-02-06 18:31:00,41.0,41.0,-100.00,NNW,338,0.0,5.0,100,0.00,,,0.00,3.000000,,2013-02-07 02:31:00,
2013-02-06 18:41:00,41.0,41.0,-100.00,NNW,338,0.0,5.0,100,0.00,,,0.00,3.000000,,2013-02-07 02:41:00,
2013-02-06 18:51:00,41.0,41.0,-100.00,NNW,338,0.0,5.0,100,0.00,,,0.00,3.000000,,2013-02-07 02:51:00,
2013-02-06 19:21:00,38.0,38.0,-100.00,East,92,0.0,4.0,100,0.00,,,0.00,0.000000,,2013-02-07 03:21:00,
2013-02-06 19:31:00,38.0,38.0,-100.00,East,92,0.0,4.0,100,0.00,,,0.00,0.000000,,2013-02-07 03:31:00,
2013-02-06 19:41:00,38.0,38.0,-100.00,East,92,0.0,4.0,100,0.00,,,0.00,0.000000,,2013-02-07 03:41:00,
2013-02-06 19:51:00,38.0,38.0,-100.00,East,92,0.0,4.0,100,0.00,,,0.00,0.000000,,2013-02-07 03:51:00,
2013-02-06 20:22:00,35.0,35.0,-100.00,ESE,107,0.0,4.0,100,0.00,,,0.00,0.000000,,2013-02-07 04:22:00,
2013-02-06 20:31:00,35.0,35.0,-100.00,ESE,107,0.0,4.0,100,0.00,,,0.00,0.000000,,2013-02-07 04:31:00,
2013-02-06 20:41:00,35.0,35.0,-100.00,ESE,107,0.0,4.0,100,0.00,,,0.00,0.000000,,2013-02-07 04:41:00,
2013-02-06 20:52:00,35.0,35.0,-100.00,ESE,107,0.0,4.0,100,0.00,,,0.00,0.000000,,2013-02-07 04:52:00,
2013-02-06 21:21:00,32.0,32.0,-100.00,ESE,112,0.0,4.0,99,0.00,,,0.00,0.000000,,2013-02-07 05:21:00,
2013-02-06 21:32:00,32.0,32.0,-100.00,ESE,112,0.0,4.0,99,0.00,,,0.00,0.000000,,2013-02-07 05:32:00,
2013-02-06 21:42:00,32.0,32.0,-100.00,ESE,112,0.0,4.0,99,0.00,,,0.00,0.000000,,2013-02-07 05:42:00,
2013-02-06 21:52:00,32.0,32.0,-100.00,ESE,112,0.0,4.0,99,0.00,,,0.00,0.000000,,2013-02-07 05:52:00,
2013-02-06 22:22:00,33.0,33.0,-100.00,ESE,103,0.0,5.0,99,0.00,,,0.00,0.000000,,2013-02-07 06:22:00,
2013-02-06 22:31:00,33.0,33.0,-100.00,ESE,103,0.0,5.0,99,0.00,,,0.00,0.000000,,2013-02-07 06:31:00,
2013-02-06 22:43:00,33.0,33.0,-100.00,ESE,103,0.0,5.0,99,0.00,,,0.00,0.000000,,2013-02-07 06:43:00,
2013-02-06 22:52:00,33.0,33.0,-100.00,ESE,103,0.0,5.0,99,0.00,,,0.00,0.000000,,2013-02-07 06:52:00,
2013-02-06 23:22:00,32.0,29.0,-100.00,ESE,108,2.0,6.0,89,0.00,,,0.00,0.000000,,2013-02-07 07:22:00,
2013-02-06 23:31:00,32.0,29.0,-100.00,ESE,108,2.0,6.0,89,0.00,,,0.00,0.000000,,2013-02-07 07:31:00,
2013-02-06 23:41:00,32.0,29.0,-100.00,ESE,108,2.0,6.0,89,0.00,,,0.00,0.000000,,2013-02-07 07:41:00,
2013-02-06 23:52:00,32.0,29.0,-100.00,ESE,108,2.0,6.0,89,0.00,,,0.00,0.000000,,2013-02-07 07:52:00,